createdAt,value
2016-05-15T00:00:00.638Z,6.07
2016-05-15T00:00:10.653Z,6.07
2016-05-15T00:00:20.655Z,6.05
2016-05-15T00:00:30.655Z,6.01
2016-05-15T00:00:40.655Z,6.05
2016-05-15T00:00:50.671Z,6.09
2016-05-15T00:01:00.671Z,6.12
2016-05-15T00:01:10.671Z,6.16
2016-05-15T00:01:20.674Z,5.99
2016-05-15T00:01:30.690Z,6.07
2016-05-15T00:01:40.690Z,6.12
2016-05-15T00:01:50.690Z,6.02
2016-05-15T00:02:00.690Z,5.98
2016-05-15T00:02:10.690Z,6.06
2016-05-15T00:02:20.707Z,6.01
2016-05-15T00:02:30.707Z,6.05
2016-05-15T00:02:40.707Z,5.97
2016-05-15T00:02:50.723Z,6.07
2016-05-15T00:03:00.723Z,6.06
2016-05-15T00:03:10.723Z,6.02
2016-05-15T00:03:20.727Z,6.02
2016-05-15T00:03:30.727Z,6.06
2016-05-15T00:03:40.742Z,6.09
2016-05-15T00:03:50.821Z,6.07
2016-05-15T00:04:00.977Z,6.01
2016-05-15T00:04:10.758Z,6.06
2016-05-15T00:04:21.027Z,6.09
2016-05-15T00:04:30.761Z,6.01
2016-05-15T00:04:40.761Z,5.94
2016-05-15T00:04:50.761Z,6.06
2016-05-15T00:05:00.777Z,5.97
2016-05-15T00:05:10.777Z,5.98
2016-05-15T00:05:20.779Z,6.02
2016-05-15T00:05:30.779Z,5.94
2016-05-15T00:05:40.794Z,5.98
2016-05-15T00:05:50.810Z,5.98
2016-05-15T00:06:00.794Z,5.98
2016-05-15T00:06:10.794Z,5.99
2016-05-15T00:06:20.813Z,6.01
2016-05-15T00:06:30.813Z,6.01
2016-05-15T00:06:40.813Z,5.98
2016-05-15T00:06:50.813Z,6.05
2016-05-15T00:07:00.829Z,6.05
2016-05-15T00:07:10.829Z,6.07
2016-05-15T00:07:20.831Z,5.94
2016-05-15T00:07:30.831Z,6.01
2016-05-15T00:07:40.831Z,6.01
2016-05-15T00:07:50.846Z,5.97
2016-05-15T00:08:00.846Z,6.01
2016-05-15T00:08:10.846Z,6.05
2016-05-15T00:08:20.848Z,5.95
2016-05-15T00:08:30.864Z,6.01
2016-05-15T00:08:40.864Z,5.98
2016-05-15T00:08:50.864Z,5.87
2016-05-15T00:09:00.879Z,5.97
2016-05-15T00:09:10.879Z,5.95
2016-05-15T00:09:20.882Z,5.84
2016-05-15T00:09:30.882Z,5.99
2016-05-15T00:09:40.882Z,5.97
2016-05-15T00:09:50.898Z,5.94
2016-05-15T00:10:00.898Z,5.98
2016-05-15T00:10:10.898Z,5.91
2016-05-15T00:10:20.902Z,5.98
2016-05-15T00:10:30.902Z,5.95
2016-05-15T00:10:40.918Z,5.99
2016-05-15T00:10:50.918Z,5.97
2016-05-15T00:11:00.918Z,5.92
2016-05-15T00:11:10.918Z,5.87
2016-05-15T00:11:20.935Z,5.98
2016-05-15T00:11:30.935Z,5.92
2016-05-15T00:11:40.935Z,5.91
2016-05-15T00:11:50.951Z,5.97
2016-05-15T00:12:00.951Z,5.94
2016-05-15T00:12:10.951Z,5.88
2016-05-15T00:12:20.954Z,5.9
2016-05-15T00:12:30.954Z,5.98
2016-05-15T00:12:40.970Z,5.95
2016-05-15T00:12:50.970Z,6.01
2016-05-15T00:13:00.970Z,5.99
2016-05-15T00:13:10.970Z,5.98
2016-05-15T00:13:20.987Z,6.01
2016-05-15T00:13:30.987Z,5.99
2016-05-15T00:13:40.987Z,5.9
2016-05-15T00:13:50.987Z,5.97
2016-05-15T00:14:00.987Z,5.92
2016-05-15T00:14:11.003Z,5.92
2016-05-15T00:14:21.006Z,5.95
2016-05-15T00:14:31.021Z,5.91
2016-05-15T00:14:41.021Z,5.98
2016-05-15T00:14:51.021Z,5.95
2016-05-15T00:15:01.021Z,5.95
2016-05-15T00:15:11.037Z,5.95
2016-05-15T00:15:21.040Z,5.9
2016-05-15T00:15:31.040Z,5.95
2016-05-15T00:15:41.040Z,5.9
2016-05-15T00:15:51.040Z,5.92
2016-05-15T00:16:01.040Z,5.95
2016-05-15T00:16:11.056Z,5.97
2016-05-15T00:16:21.058Z,5.88
2016-05-15T00:16:31.058Z,5.81
2016-05-15T00:16:41.058Z,5.92
2016-05-15T00:16:51.073Z,5.88
2016-05-15T00:17:01.073Z,5.94
2016-05-15T00:17:11.073Z,5.9
2016-05-15T00:17:21.076Z,5.91
2016-05-15T00:17:31.092Z,5.9
2016-05-15T00:17:41.092Z,5.92
2016-05-15T00:17:51.092Z,5.87
2016-05-15T00:18:01.092Z,5.84
2016-05-15T00:18:11.108Z,5.9
2016-05-15T00:18:21.111Z,5.94
2016-05-15T00:18:31.314Z,5.84
2016-05-15T00:18:41.236Z,5.84
2016-05-15T00:18:51.111Z,5.91
2016-05-15T00:19:01.407Z,5.83
2016-05-15T00:19:11.298Z,5.92
2016-05-15T00:19:21.128Z,5.79
2016-05-15T00:19:31.128Z,5.8
2016-05-15T00:19:41.144Z,5.91
2016-05-15T00:19:51.144Z,5.8
2016-05-15T00:20:01.159Z,5.9
2016-05-15T00:20:11.144Z,5.81
2016-05-15T00:20:21.162Z,5.87
2016-05-15T00:20:31.162Z,5.92
2016-05-15T00:20:41.162Z,5.88
2016-05-15T00:20:51.178Z,5.81
2016-05-15T00:21:01.178Z,5.88
2016-05-15T00:21:11.178Z,5.77
2016-05-15T00:21:21.181Z,5.81
2016-05-15T00:21:31.181Z,5.84
2016-05-15T00:21:41.197Z,5.88
2016-05-15T00:21:51.197Z,5.88
2016-05-15T00:22:01.197Z,5.88
2016-05-15T00:22:11.197Z,5.81
2016-05-15T00:22:21.214Z,5.8
2016-05-15T00:22:31.214Z,5.88
2016-05-15T00:22:41.214Z,5.88
2016-05-15T00:22:51.214Z,5.84
2016-05-15T00:23:01.230Z,5.83
2016-05-15T00:23:11.230Z,5.88
2016-05-15T00:23:21.234Z,5.8
2016-05-15T00:23:31.234Z,5.83
2016-05-15T00:23:41.234Z,5.87
2016-05-15T00:23:51.250Z,5.84
2016-05-15T00:24:01.250Z,5.8
2016-05-15T00:24:11.250Z,5.79
2016-05-15T00:24:21.252Z,5.79
2016-05-15T00:24:31.267Z,5.87
2016-05-15T00:24:41.267Z,5.84
2016-05-15T00:24:51.267Z,5.81
2016-05-15T00:25:01.283Z,5.8
2016-05-15T00:25:11.267Z,5.84
2016-05-15T00:25:21.286Z,5.8
2016-05-15T00:25:31.301Z,5.8
2016-05-15T00:25:41.286Z,5.83
2016-05-15T00:25:51.301Z,5.77
2016-05-15T00:26:01.301Z,5.83
2016-05-15T00:26:11.301Z,5.83
2016-05-15T00:26:21.303Z,5.77
2016-05-15T00:26:31.303Z,5.84
2016-05-15T00:26:41.319Z,5.83
2016-05-15T00:26:51.319Z,5.88
2016-05-15T00:27:01.319Z,5.81
2016-05-15T00:27:11.319Z,5.84
2016-05-15T00:27:21.338Z,5.77
2016-05-15T00:27:31.338Z,5.8
2016-05-15T00:27:41.338Z,5.79
2016-05-15T00:27:51.353Z,5.84
2016-05-15T00:28:01.353Z,5.83
2016-05-15T00:28:11.353Z,5.88
2016-05-15T00:28:21.355Z,5.84
2016-05-15T00:28:31.355Z,5.87
2016-05-15T00:28:41.371Z,5.84
2016-05-15T00:28:51.371Z,5.81
2016-05-15T00:29:01.387Z,5.8
2016-05-15T00:29:11.387Z,5.83
2016-05-15T00:29:21.390Z,5.79
2016-05-15T00:29:31.390Z,5.87
2016-05-15T00:29:41.390Z,5.8
2016-05-15T00:29:51.390Z,5.81
2016-05-15T00:30:01.405Z,5.87
2016-05-15T00:30:11.405Z,5.8
2016-05-15T00:30:21.408Z,5.83
2016-05-15T00:30:31.408Z,5.87
2016-05-15T00:30:41.424Z,5.81
2016-05-15T00:30:51.424Z,5.83
2016-05-15T00:31:01.424Z,5.88
2016-05-15T00:31:11.424Z,5.83
2016-05-15T00:31:21.442Z,5.77
2016-05-15T00:31:31.442Z,5.83
2016-05-15T00:31:41.442Z,5.9
2016-05-15T00:31:51.442Z,5.88
2016-05-15T00:32:01.458Z,5.81
2016-05-15T00:32:11.458Z,5.81
2016-05-15T00:32:21.461Z,5.88
2016-05-15T00:32:31.477Z,5.9
2016-05-15T00:32:41.477Z,5.84
2016-05-15T00:32:51.477Z,5.83
2016-05-15T00:33:01.477Z,5.81
2016-05-15T00:33:11.477Z,5.77
2016-05-15T00:33:21.479Z,5.84
2016-05-15T00:33:31.494Z,5.81
2016-05-15T00:33:41.651Z,5.81
2016-05-15T00:33:51.494Z,5.87
2016-05-15T00:34:01.494Z,5.8
2016-05-15T00:34:11.510Z,5.79
2016-05-15T00:34:21.513Z,5.77
2016-05-15T00:34:31.513Z,5.84
2016-05-15T00:34:41.513Z,5.79
2016-05-15T00:34:51.529Z,5.79
2016-05-15T00:35:01.529Z,5.77
2016-05-15T00:35:11.529Z,5.81
2016-05-15T00:35:21.531Z,5.83
2016-05-15T00:35:31.531Z,5.81
2016-05-15T00:35:41.546Z,5.79
2016-05-15T00:35:51.546Z,5.83
2016-05-15T00:36:01.546Z,5.76
2016-05-15T00:36:11.562Z,5.9
2016-05-15T00:36:21.565Z,5.83
2016-05-15T00:36:31.565Z,5.76
2016-05-15T00:36:41.565Z,5.84
2016-05-15T00:36:51.565Z,5.83
2016-05-15T00:37:01.580Z,5.83
2016-05-15T00:37:11.580Z,5.81
2016-05-15T00:37:21.583Z,5.79
2016-05-15T00:37:31.583Z,5.8
2016-05-15T00:37:41.599Z,5.79
2016-05-15T00:37:51.599Z,5.79
2016-05-15T00:38:01.599Z,5.8
2016-05-15T00:38:11.599Z,5.81
2016-05-15T00:38:21.617Z,5.77
2016-05-15T00:38:31.617Z,5.79
2016-05-15T00:38:41.617Z,5.76
2016-05-15T00:38:51.632Z,5.74
2016-05-15T00:39:01.617Z,5.8
2016-05-15T00:39:11.632Z,5.8
2016-05-15T00:39:21.635Z,5.69
2016-05-15T00:39:31.635Z,5.76
2016-05-15T00:39:41.635Z,5.73
2016-05-15T00:39:51.651Z,5.79
2016-05-15T00:40:01.651Z,5.74
2016-05-15T00:40:11.651Z,5.74
2016-05-15T00:40:21.670Z,5.81
2016-05-15T00:40:31.670Z,5.77
2016-05-15T00:40:41.670Z,5.73
2016-05-15T00:40:51.670Z,5.76
2016-05-15T00:41:01.670Z,5.77
2016-05-15T00:41:11.685Z,5.77
2016-05-15T00:41:21.687Z,5.77
2016-05-15T00:41:31.687Z,5.74
2016-05-15T00:41:41.687Z,5.77
2016-05-15T00:41:51.703Z,5.74
2016-05-15T00:42:01.703Z,5.7
2016-05-15T00:42:11.703Z,5.8
2016-05-15T00:42:21.706Z,5.74
2016-05-15T00:42:31.721Z,5.76
2016-05-15T00:42:41.721Z,5.77
2016-05-15T00:42:51.721Z,5.72
2016-05-15T00:43:01.721Z,5.77
2016-05-15T00:43:11.721Z,5.76
2016-05-15T00:43:21.740Z,5.73
2016-05-15T00:43:31.740Z,5.79
2016-05-15T00:43:41.740Z,5.77
2016-05-15T00:43:51.756Z,5.8
2016-05-15T00:44:01.756Z,5.79
2016-05-15T00:44:11.756Z,5.8
2016-05-15T00:44:21.759Z,5.73
2016-05-15T00:44:31.759Z,5.72
2016-05-15T00:44:41.774Z,5.77
2016-05-15T00:44:51.774Z,5.76
2016-05-15T00:45:01.774Z,5.65
2016-05-15T00:45:11.774Z,5.73
2016-05-15T00:45:21.792Z,5.69
2016-05-15T00:45:31.792Z,5.76
2016-05-15T00:45:41.792Z,5.72
2016-05-15T00:45:51.792Z,5.67
2016-05-15T00:46:01.792Z,5.76
2016-05-15T00:46:12.026Z,5.74
2016-05-15T00:46:21.826Z,5.69
2016-05-15T00:46:31.811Z,5.69
2016-05-15T00:46:41.811Z,5.7
2016-05-15T00:46:51.826Z,5.7
2016-05-15T00:47:01.826Z,5.73
2016-05-15T00:47:11.826Z,5.73
2016-05-15T00:47:21.845Z,5.73
2016-05-15T00:47:31.845Z,5.72
2016-05-15T00:47:41.845Z,5.72
2016-05-15T00:47:51.845Z,5.73
2016-05-15T00:48:01.860Z,5.69
2016-05-15T00:48:11.860Z,5.74
2016-05-15T00:48:21.862Z,5.73
2016-05-15T00:48:32.003Z,5.7
2016-05-15T00:48:41.862Z,5.7
2016-05-15T00:48:51.862Z,5.73
2016-05-15T00:49:02.534Z,5.73
2016-05-15T00:49:12.284Z,5.7
2016-05-15T00:49:21.882Z,5.74
2016-05-15T00:49:31.882Z,5.7
2016-05-15T00:49:41.898Z,5.73
2016-05-15T00:49:51.898Z,5.72
2016-05-15T00:50:01.898Z,5.77
2016-05-15T00:50:11.913Z,5.74
2016-05-15T00:50:21.915Z,5.72
2016-05-15T00:50:31.915Z,5.72
2016-05-15T00:50:41.915Z,5.69
2016-05-15T00:50:51.915Z,5.69
2016-05-15T00:51:01.931Z,5.72
2016-05-15T00:51:11.931Z,5.69
2016-05-15T00:51:21.934Z,5.74
2016-05-15T00:51:31.934Z,5.73
2016-05-15T00:51:41.950Z,5.7
2016-05-15T00:51:51.950Z,5.7
2016-05-15T00:52:01.950Z,5.65
2016-05-15T00:52:11.950Z,5.73
2016-05-15T00:52:21.967Z,5.76
2016-05-15T00:52:31.967Z,5.69
2016-05-15T00:52:41.967Z,5.65
2016-05-15T00:52:51.983Z,5.72
2016-05-15T00:53:01.967Z,5.67
2016-05-15T00:53:11.983Z,5.8
2016-05-15T00:53:21.986Z,5.7
2016-05-15T00:53:31.986Z,5.69
2016-05-15T00:53:42.001Z,5.73
2016-05-15T00:53:52.001Z,5.67
2016-05-15T00:54:02.001Z,5.72
2016-05-15T00:54:12.001Z,5.73
2016-05-15T00:54:22.019Z,5.67
2016-05-15T00:54:32.019Z,5.7
2016-05-15T00:54:42.019Z,5.69
2016-05-15T00:54:52.019Z,5.72
2016-05-15T00:55:02.035Z,5.73
2016-05-15T00:55:12.035Z,5.77
2016-05-15T00:55:22.038Z,5.72
2016-05-15T00:55:32.038Z,5.73
2016-05-15T00:55:42.038Z,5.77
2016-05-15T00:55:52.053Z,5.64
2016-05-15T00:56:02.053Z,5.69
2016-05-15T00:56:12.053Z,5.77
2016-05-15T00:56:22.056Z,5.74
2016-05-15T00:56:32.072Z,5.72
2016-05-15T00:56:42.072Z,5.72
2016-05-15T00:56:52.088Z,5.73
2016-05-15T00:57:02.072Z,5.76
2016-05-15T00:57:12.072Z,5.73
2016-05-15T00:57:22.091Z,5.73
2016-05-15T00:57:32.091Z,5.7
2016-05-15T00:57:42.091Z,5.73
2016-05-15T00:57:52.106Z,5.77
2016-05-15T00:58:02.106Z,5.73
2016-05-15T00:58:12.106Z,5.69
2016-05-15T00:58:22.108Z,5.76
2016-05-15T00:58:32.108Z,5.74
2016-05-15T00:58:42.124Z,5.67
2016-05-15T00:58:52.124Z,5.74
2016-05-15T00:59:02.124Z,5.74
2016-05-15T00:59:12.124Z,5.73
2016-05-15T00:59:22.142Z,5.73
2016-05-15T00:59:32.142Z,5.76
2016-05-15T00:59:42.142Z,5.79
2016-05-15T00:59:52.142Z,5.69
2016-05-15T01:00:02.142Z,5.74
2016-05-15T01:00:12.158Z,5.7
2016-05-15T01:00:22.161Z,5.74
2016-05-15T01:00:32.177Z,5.77
2016-05-15T01:00:42.177Z,5.69
2016-05-15T01:00:52.192Z,5.74
2016-05-15T01:01:02.177Z,5.76
2016-05-15T01:01:12.177Z,5.65
2016-05-15T01:01:22.179Z,5.64
2016-05-15T01:01:32.194Z,5.7
2016-05-15T01:01:42.194Z,5.72
2016-05-15T01:01:52.194Z,5.7
2016-05-15T01:02:02.194Z,5.72
2016-05-15T01:02:12.210Z,5.74
2016-05-15T01:02:22.213Z,5.74
2016-05-15T01:02:32.213Z,5.77
2016-05-15T01:02:42.213Z,5.79
2016-05-15T01:02:52.229Z,5.73
2016-05-15T01:03:44.903Z,5.7
2016-05-15T01:03:54.857Z,5.74
2016-05-15T01:04:04.857Z,5.8
2016-05-15T01:04:14.857Z,5.76
2016-05-15T01:04:25.000Z,5.7
2016-05-15T01:04:34.875Z,5.76
2016-05-15T01:04:44.875Z,5.72
2016-05-15T01:04:54.891Z,5.7
2016-05-15T01:05:04.891Z,5.73
2016-05-15T01:05:14.891Z,5.65
2016-05-15T01:05:24.893Z,5.7
2016-05-15T01:05:34.908Z,5.77
2016-05-15T01:05:44.908Z,5.76
2016-05-15T01:05:54.908Z,5.76
2016-05-15T01:06:04.908Z,5.65
2016-05-15T01:06:14.908Z,5.76
2016-05-15T01:06:24.927Z,5.74
2016-05-15T01:06:34.927Z,5.72
2016-05-15T01:06:44.927Z,5.77
2016-05-15T01:06:54.927Z,5.67
2016-05-15T01:07:04.943Z,5.74
2016-05-15T01:07:14.943Z,5.7
2016-05-15T01:07:24.946Z,5.9
2016-05-15T01:07:34.946Z,5.74
2016-05-15T01:07:44.961Z,5.73
2016-05-15T01:07:54.961Z,5.7
2016-05-15T01:08:04.961Z,5.74
2016-05-15T01:08:14.961Z,5.7
2016-05-15T01:08:24.979Z,5.73
2016-05-15T01:08:34.979Z,5.76
2016-05-15T01:08:44.995Z,5.76
2016-05-15T01:08:54.979Z,5.73
2016-05-15T01:09:04.979Z,5.67
2016-05-15T01:09:14.995Z,5.69
2016-05-15T01:09:24.998Z,5.7
2016-05-15T01:09:34.998Z,5.77
2016-05-15T01:09:45.013Z,5.69
2016-05-15T01:09:55.013Z,5.72
2016-05-15T01:10:05.013Z,5.83
2016-05-15T01:10:15.013Z,5.73
2016-05-15T01:10:25.016Z,5.72
2016-05-15T01:10:35.032Z,5.65
2016-05-15T01:10:45.032Z,5.7
2016-05-15T01:10:55.032Z,5.7
2016-05-15T01:11:05.032Z,5.74
2016-05-15T01:11:15.047Z,5.62
2016-05-15T01:11:25.050Z,5.76
2016-05-15T01:11:35.050Z,5.69
2016-05-15T01:11:45.066Z,5.69
2016-05-15T01:11:55.050Z,5.64
2016-05-15T01:12:05.066Z,5.7
2016-05-15T01:12:15.066Z,5.74
2016-05-15T01:12:25.068Z,5.62
2016-05-15T01:12:35.068Z,5.76
2016-05-15T01:12:45.084Z,5.77
2016-05-15T01:12:55.302Z,5.73
2016-05-15T01:13:05.084Z,5.73
2016-05-15T01:13:15.084Z,5.74
2016-05-15T01:13:25.102Z,5.77
2016-05-15T01:13:35.102Z,5.65
2016-05-15T01:13:45.102Z,5.67
2016-05-15T01:13:55.102Z,5.73
2016-05-15T01:14:05.118Z,5.74
2016-05-15T01:14:15.118Z,5.76
2016-05-15T01:14:25.120Z,5.77
2016-05-15T01:14:35.120Z,5.69
2016-05-15T01:14:45.136Z,5.72
2016-05-15T01:14:55.136Z,5.69
2016-05-15T01:15:05.136Z,5.74
2016-05-15T01:15:15.136Z,5.67
2016-05-15T01:15:25.154Z,5.77
2016-05-15T01:15:35.154Z,5.69
2016-05-15T01:15:45.154Z,5.8
2016-05-15T01:15:55.154Z,5.77
2016-05-15T01:16:05.154Z,5.67
2016-05-15T01:16:15.170Z,5.73
2016-05-15T01:16:25.173Z,5.69
2016-05-15T01:16:35.173Z,5.76
2016-05-15T01:16:45.188Z,5.74
2016-05-15T01:16:55.188Z,5.7
2016-05-15T01:17:05.188Z,5.61
2016-05-15T01:17:15.188Z,5.72
2016-05-15T01:17:25.206Z,5.64
2016-05-15T01:17:35.206Z,5.73
2016-05-15T01:17:45.206Z,5.74
2016-05-15T01:17:55.206Z,5.67
2016-05-15T01:18:05.206Z,5.67
2016-05-15T01:18:15.222Z,5.65
2016-05-15T01:18:25.225Z,5.73
2016-05-15T01:18:35.225Z,5.65
2016-05-15T01:18:45.240Z,5.7
2016-05-15T01:18:55.240Z,5.73
2016-05-15T01:19:05.240Z,5.64
2016-05-15T01:19:15.240Z,5.64
2016-05-15T01:19:25.259Z,5.73
2016-05-15T01:19:35.259Z,5.74
2016-05-15T01:19:45.259Z,5.67
2016-05-15T01:19:55.259Z,5.65
2016-05-15T01:20:05.259Z,5.7
2016-05-15T01:20:15.275Z,5.61
2016-05-15T01:20:25.277Z,5.73
2016-05-15T01:20:35.277Z,5.76
2016-05-15T01:20:45.277Z,5.77
2016-05-15T01:20:55.277Z,5.69
2016-05-15T01:21:05.292Z,5.73
2016-05-15T01:21:15.292Z,5.72
2016-05-15T01:21:25.296Z,5.65
2016-05-15T01:21:35.312Z,5.69
2016-05-15T01:21:45.312Z,5.65
2016-05-15T01:21:55.312Z,5.62
2016-05-15T01:22:05.312Z,5.64
2016-05-15T01:22:15.312Z,5.65
2016-05-15T01:22:25.329Z,5.7
2016-05-15T01:22:35.329Z,5.74
2016-05-15T01:22:45.329Z,5.74
2016-05-15T01:22:55.329Z,5.65
2016-05-15T01:23:05.345Z,5.7
2016-05-15T01:23:15.345Z,5.67
2016-05-15T01:23:25.348Z,5.7
2016-05-15T01:23:35.348Z,5.64
2016-05-15T01:23:45.364Z,5.69
2016-05-15T01:23:55.364Z,5.65
2016-05-15T01:24:05.364Z,5.69
2016-05-15T01:24:15.364Z,5.74
2016-05-15T01:24:25.366Z,5.73
2016-05-15T01:24:35.381Z,5.7
2016-05-15T01:24:45.381Z,5.59
2016-05-15T01:24:55.381Z,5.58
2016-05-15T01:25:05.381Z,5.64
2016-05-15T01:25:15.381Z,5.67
2016-05-15T01:25:25.400Z,5.65
2016-05-15T01:25:35.416Z,5.64
2016-05-15T01:25:45.400Z,5.72
2016-05-15T01:25:55.400Z,5.61
2016-05-15T01:26:05.416Z,5.65
2016-05-15T01:26:15.416Z,5.69
2016-05-15T01:26:25.419Z,5.65
2016-05-15T01:26:35.434Z,5.65
2016-05-15T01:26:45.434Z,5.7
2016-05-15T01:26:55.434Z,5.59
2016-05-15T01:27:05.434Z,5.72
2016-05-15T01:27:15.450Z,5.65
2016-05-15T01:27:25.452Z,5.67
2016-05-15T01:27:35.452Z,5.64
2016-05-15T01:27:45.452Z,5.65
2016-05-15T01:27:55.452Z,5.64
2016-05-15T01:28:05.467Z,5.64
2016-05-15T01:28:15.467Z,5.67
2016-05-15T01:28:25.470Z,5.7
2016-05-15T01:28:35.470Z,5.64
2016-05-15T01:28:45.470Z,5.65
2016-05-15T01:28:55.486Z,5.61
2016-05-15T01:29:05.502Z,5.62
2016-05-15T01:29:15.517Z,5.65
2016-05-15T01:29:25.505Z,5.55
2016-05-15T01:29:35.505Z,5.7
2016-05-15T01:29:45.505Z,5.64
2016-05-15T01:29:55.520Z,5.67
2016-05-15T01:30:05.505Z,5.65
2016-05-15T01:30:15.520Z,5.64
2016-05-15T01:30:25.522Z,5.65
2016-05-15T01:30:35.522Z,5.69
2016-05-15T01:30:45.522Z,5.67
2016-05-15T01:30:55.538Z,5.61
2016-05-15T01:31:05.538Z,5.58
2016-05-15T01:31:15.538Z,5.62
2016-05-15T01:31:25.541Z,5.72
2016-05-15T01:31:35.557Z,5.67
2016-05-15T01:31:45.557Z,5.7
2016-05-15T01:31:55.557Z,5.65
2016-05-15T01:32:05.572Z,5.67
2016-05-15T01:32:15.557Z,5.7
2016-05-15T01:32:25.575Z,5.58
2016-05-15T01:32:35.575Z,5.62
2016-05-15T01:32:45.575Z,5.7
2016-05-15T01:32:55.575Z,5.69
2016-05-15T01:33:05.591Z,5.7
2016-05-15T01:33:15.591Z,5.69
2016-05-15T01:33:25.594Z,5.65
2016-05-15T01:33:35.609Z,5.64
2016-05-15T01:33:45.609Z,5.69
2016-05-15T01:33:55.609Z,5.69
2016-05-15T01:34:05.609Z,5.58
2016-05-15T01:34:15.609Z,5.62
2016-05-15T01:34:25.627Z,5.65
2016-05-15T01:34:35.627Z,5.56
2016-05-15T01:34:45.627Z,5.62
2016-05-15T01:34:55.627Z,5.62
2016-05-15T01:35:05.643Z,5.67
2016-05-15T01:35:15.643Z,5.73
2016-05-15T01:35:25.646Z,5.72
2016-05-15T01:35:35.646Z,5.51
2016-05-15T01:35:45.661Z,5.61
2016-05-15T01:35:55.661Z,5.54
2016-05-15T01:36:05.661Z,5.67
2016-05-15T01:36:15.661Z,5.62
2016-05-15T01:36:25.680Z,5.65
2016-05-15T01:36:35.680Z,5.69
2016-05-15T01:36:45.680Z,5.64
2016-05-15T01:36:55.680Z,5.64
2016-05-15T01:37:05.680Z,5.61
2016-05-15T01:37:15.696Z,5.51
2016-05-15T01:37:25.698Z,5.65
2016-05-15T01:37:35.698Z,5.61
2016-05-15T01:37:45.698Z,5.58
2016-05-15T01:37:55.713Z,5.61
2016-05-15T01:38:05.713Z,5.64
2016-05-15T01:38:15.713Z,5.7
2016-05-15T01:38:25.716Z,5.74
2016-05-15T01:38:35.732Z,5.65
2016-05-15T01:38:45.732Z,5.7
2016-05-15T01:38:55.732Z,5.64
2016-05-15T01:39:05.732Z,5.67
2016-05-15T01:39:15.747Z,5.65
2016-05-15T01:39:25.750Z,5.67
2016-05-15T01:39:35.750Z,5.65
2016-05-15T01:39:45.750Z,5.7
2016-05-15T01:39:55.766Z,5.65
2016-05-15T01:40:05.766Z,5.61
2016-05-15T01:40:15.766Z,5.77
2016-05-15T01:40:25.768Z,5.64
2016-05-15T01:40:35.768Z,5.65
2016-05-15T01:40:45.784Z,5.67
2016-05-15T01:40:55.784Z,5.65
2016-05-15T01:41:05.784Z,5.65
2016-05-15T01:41:15.784Z,5.64
2016-05-15T01:41:25.802Z,5.61
2016-05-15T01:41:35.802Z,5.65
2016-05-15T01:41:45.802Z,5.65
2016-05-15T01:41:55.802Z,5.69
2016-05-15T01:42:05.802Z,5.65
2016-05-15T01:42:15.818Z,5.65
2016-05-15T01:42:25.820Z,5.69
2016-05-15T01:42:35.820Z,5.7
2016-05-15T01:42:45.836Z,5.64
2016-05-15T01:42:55.836Z,5.61
2016-05-15T01:43:05.836Z,5.64
2016-05-15T01:43:15.836Z,5.69
2016-05-15T01:43:25.854Z,5.61
2016-05-15T01:43:35.854Z,5.58
2016-05-15T01:43:45.854Z,5.62
2016-05-15T01:43:55.854Z,5.65
2016-05-15T01:44:05.854Z,5.65
2016-05-15T01:44:15.870Z,5.59
2016-05-15T01:44:25.873Z,5.64
2016-05-15T01:44:35.873Z,5.69
2016-05-15T01:44:45.873Z,5.54
2016-05-15T01:44:55.888Z,5.69
2016-05-15T01:45:05.888Z,5.67
2016-05-15T01:45:15.888Z,5.67
2016-05-15T01:45:25.906Z,5.72
2016-05-15T01:45:35.906Z,5.64
2016-05-15T01:45:45.906Z,5.56
2016-05-15T01:45:55.906Z,5.64
2016-05-15T01:46:05.922Z,5.61
2016-05-15T01:46:15.906Z,5.64
2016-05-15T01:46:25.925Z,5.65
2016-05-15T01:46:35.925Z,5.67
2016-05-15T01:46:45.940Z,5.67
2016-05-15T01:46:55.940Z,5.55
2016-05-15T01:47:05.940Z,5.64
2016-05-15T01:47:15.940Z,5.64
2016-05-15T01:47:25.959Z,5.67
2016-05-15T01:47:35.943Z,5.58
2016-05-15T01:47:45.959Z,5.67
2016-05-15T01:47:55.959Z,5.67
2016-05-15T01:48:05.959Z,5.61
2016-05-15T01:48:15.959Z,5.49
2016-05-15T01:48:25.993Z,5.69
2016-05-15T01:48:35.993Z,5.69
2016-05-15T01:48:45.978Z,5.58
2016-05-15T01:48:55.978Z,5.7
2016-05-15T01:49:05.993Z,5.51
2016-05-15T01:49:16.290Z,5.56
2016-05-15T01:49:25.996Z,5.64
2016-05-15T01:49:35.996Z,5.72
2016-05-15T01:49:46.012Z,5.61
2016-05-15T01:49:56.012Z,5.56
2016-05-15T01:50:06.012Z,5.54
2016-05-15T01:50:16.012Z,5.56
2016-05-15T01:50:26.014Z,5.56
2016-05-15T01:50:36.029Z,5.61
2016-05-15T01:50:46.029Z,5.65
2016-05-15T01:50:56.029Z,5.65
2016-05-15T01:51:06.045Z,5.69
2016-05-15T01:51:16.045Z,5.59
2016-05-15T01:51:26.048Z,5.69
2016-05-15T01:51:36.048Z,5.61
2016-05-15T01:51:46.048Z,5.59
2016-05-15T01:51:56.064Z,5.58
2016-05-15T01:52:06.064Z,5.65
2016-05-15T01:52:16.064Z,5.67
2016-05-15T01:52:26.066Z,5.67
2016-05-15T01:52:36.081Z,5.54
2016-05-15T01:52:46.081Z,5.58
2016-05-15T01:52:56.081Z,5.65
2016-05-15T01:53:06.081Z,5.59
2016-05-15T01:53:16.081Z,5.67
2016-05-15T01:53:26.101Z,5.62
2016-05-15T01:53:36.101Z,5.7
2016-05-15T01:53:46.101Z,5.62
2016-05-15T01:53:56.117Z,5.64
2016-05-15T01:54:06.117Z,5.65
2016-05-15T01:54:16.117Z,5.65
2016-05-15T01:54:26.119Z,5.54
2016-05-15T01:54:36.119Z,5.61
2016-05-15T01:54:46.134Z,5.64
2016-05-15T01:54:56.134Z,5.62
2016-05-15T01:55:06.134Z,5.61
2016-05-15T01:55:16.134Z,5.69
2016-05-15T01:55:26.137Z,5.65
2016-05-15T01:55:36.153Z,5.64
2016-05-15T01:55:46.153Z,5.65
2016-05-15T01:55:56.153Z,5.62
2016-05-15T01:56:06.153Z,5.62
2016-05-15T01:56:16.168Z,5.67
2016-05-15T01:56:26.170Z,5.62
2016-05-15T01:56:36.170Z,5.65
2016-05-15T01:56:46.170Z,5.73
2016-05-15T01:56:56.186Z,5.65
2016-05-15T01:57:06.186Z,5.72
2016-05-15T01:57:16.186Z,5.64
2016-05-15T01:57:26.189Z,5.7
2016-05-15T01:57:36.205Z,5.65
2016-05-15T01:57:46.205Z,5.69
2016-05-15T01:57:56.205Z,5.65
2016-05-15T01:58:06.205Z,5.65
2016-05-15T01:58:16.220Z,5.67
2016-05-15T01:58:26.223Z,5.67
2016-05-15T01:58:36.223Z,5.65
2016-05-15T01:58:46.239Z,5.65
2016-05-15T01:58:56.239Z,5.64
2016-05-15T01:59:06.239Z,5.69
2016-05-15T01:59:16.239Z,5.64
2016-05-15T01:59:26.241Z,5.59
2016-05-15T01:59:36.257Z,5.69
2016-05-15T01:59:46.257Z,5.69
2016-05-15T01:59:56.257Z,5.55
2016-05-15T02:00:06.257Z,5.67
2016-05-15T02:00:16.257Z,5.59
2016-05-15T02:00:26.275Z,5.64
2016-05-15T02:00:36.275Z,5.69
2016-05-15T02:00:46.275Z,5.65
2016-05-15T02:00:56.275Z,5.69
2016-05-15T02:01:06.291Z,5.73
2016-05-15T02:01:16.291Z,5.65
2016-05-15T02:01:26.294Z,5.67
2016-05-15T02:01:36.294Z,5.65
2016-05-15T02:01:46.309Z,5.72
2016-05-15T02:01:56.309Z,5.67
2016-05-15T02:02:06.309Z,5.67
2016-05-15T02:02:16.309Z,5.77
2016-05-15T02:02:26.328Z,5.74
2016-05-15T02:02:36.312Z,5.67
2016-05-15T02:02:46.328Z,5.72
2016-05-15T02:02:56.328Z,5.76
2016-05-15T02:03:06.328Z,5.69
2016-05-15T02:03:16.344Z,5.69
2016-05-15T02:03:26.346Z,5.69
2016-05-15T02:03:36.346Z,5.74
2016-05-15T02:03:46.549Z,5.65
2016-05-15T02:03:56.361Z,5.7
2016-05-15T02:04:06.361Z,5.72
2016-05-15T02:04:16.361Z,5.73
2016-05-15T02:04:26.505Z,5.72
2016-05-15T02:04:36.380Z,5.65
2016-05-15T02:04:46.380Z,5.7
2016-05-15T02:04:56.380Z,5.72
2016-05-15T02:05:06.380Z,5.7
2016-05-15T02:05:16.380Z,5.73
2016-05-15T02:05:26.398Z,5.65
2016-05-15T02:05:36.398Z,5.83
2016-05-15T02:05:46.398Z,5.79
2016-05-15T02:05:56.413Z,5.77
2016-05-15T02:06:06.413Z,5.77
2016-05-15T02:06:16.413Z,5.73
2016-05-15T02:06:26.416Z,5.73
2016-05-15T02:06:36.416Z,5.73
2016-05-15T02:06:46.447Z,5.65
2016-05-15T02:06:56.432Z,5.73
2016-05-15T02:07:06.432Z,5.65
2016-05-15T02:07:16.432Z,5.69
2016-05-15T02:07:26.450Z,5.62
2016-05-15T02:07:36.450Z,5.69
2016-05-15T02:07:46.450Z,5.72
2016-05-15T02:07:56.450Z,5.69
2016-05-15T02:08:06.466Z,5.65
2016-05-15T02:08:16.466Z,5.65
2016-05-15T02:08:26.468Z,5.65
2016-05-15T02:08:36.468Z,5.54
2016-05-15T02:08:46.484Z,5.62
2016-05-15T02:08:56.484Z,5.61
2016-05-15T02:09:06.484Z,5.72
2016-05-15T02:09:16.484Z,5.61
2016-05-15T02:09:26.488Z,5.65
2016-05-15T02:09:36.503Z,5.62
2016-05-15T02:09:46.503Z,5.65
2016-05-15T02:09:56.503Z,5.69
2016-05-15T02:10:06.503Z,5.62
2016-05-15T02:10:16.519Z,5.62
2016-05-15T02:10:26.521Z,5.64
2016-05-15T02:10:36.521Z,5.69
2016-05-15T02:10:46.521Z,5.67
2016-05-15T02:10:56.537Z,5.56
2016-05-15T02:11:06.537Z,5.7
2016-05-15T02:11:16.537Z,5.65
2016-05-15T02:11:26.540Z,5.62
2016-05-15T02:11:36.540Z,5.67
2016-05-15T02:11:46.555Z,5.56
2016-05-15T02:11:56.555Z,5.58
2016-05-15T02:12:06.555Z,5.52
2016-05-15T02:12:16.571Z,5.67
2016-05-15T02:12:26.573Z,5.55
2016-05-15T02:12:36.573Z,5.54
2016-05-15T02:12:46.588Z,5.62
2016-05-15T02:12:56.588Z,5.64
2016-05-15T02:13:06.588Z,5.62
2016-05-15T02:13:16.588Z,5.52
2016-05-15T02:13:26.592Z,5.55
2016-05-15T02:13:36.592Z,5.55
2016-05-15T02:13:46.608Z,5.58
2016-05-15T02:13:56.608Z,5.62
2016-05-15T02:14:06.608Z,5.55
2016-05-15T02:14:16.608Z,5.56